Time;durP1;ratioP1;P1;durP2;ratioP2;P2;SDS_P1;SDS_P2;PMS_P1;PMS_P2;Temp;Humidity;BMP_temperature;BMP_pressure;BME280_temperature;BME280_humidity;BME280_pressure;Samples;Min_cycle;Max_cycle;Signal;HPM_P1;HPM_P2
2021/08/13 00:00:15;;;;;;;8.02;3.50;;;;;;;19.17;59.81;93778.69;5090867;28;20048;-84
2021/08/13 00:02:42;;;;;;;6.78;3.67;;;;;;;19.21;59.72;93785.75;5091049;28;20044;-84
2021/08/13 00:05:10;;;;;;;7.68;2.95;;;;;;;19.16;59.90;93766.72;5090918;28;20418;-84
2021/08/13 00:07:36;;;;;;;6.47;3.63;;;;;;;19.11;59.96;93780.44;5090803;28;20062;-84
2021/08/13 00:10:05;;;;;;;6.88;4.07;;;;;;;19.01;59.86;93762.91;5090931;28;20101;-84
2021/08/13 00:12:31;;;;;;;5.88;3.47;;;;;;;19.04;59.79;93767.66;5090543;28;20051;-83
2021/08/13 00:14:59;;;;;;;6.60;3.05;;;;;;;18.77;60.06;93737.22;5090351;28;20528;-84
2021/08/13 00:17:28;;;;;;;6.05;3.40;;;;;;;19.02;59.94;93772.28;5090885;28;20401;-84
2021/08/13 00:19:55;;;;;;;6.03;3.78;;;;;;;18.93;60.59;93771.97;5090485;28;20044;-84
2021/08/13 00:22:22;;;;;;;9.32;4.07;;;;;;;18.81;61.17;93784.34;5090377;28;20044;-83
2021/08/13 00:24:51;;;;;;;6.30;3.35;;;;;;;18.74;61.09;93781.94;5090339;28;20090;-84
2021/08/13 00:27:18;;;;;;;6.50;3.38;;;;;;;18.72;61.50;93770.22;5090471;28;20063;-83
2021/08/13 00:29:45;;;;;;;5.20;2.83;;;;;;;18.72;61.26;93772.81;5090186;28;20043;-84
2021/08/13 00:32:12;;;;;;;6.72;3.13;;;;;;;18.73;61.46;93779.59;5090356;28;20051;-84
2021/08/13 00:34:40;;;;;;;6.18;3.45;;;;;;;18.53;61.71;93760.97;5089887;28;20052;-83
2021/08/13 00:37:07;;;;;;;5.40;3.28;;;;;;;18.55;61.95;93771.09;5090405;28;20055;-83
2021/08/13 00:39:34;;;;;;;4.65;2.75;;;;;;;18.56;61.95;93777.88;5090088;28;20056;-83
2021/08/13 00:42:01;;;;;;;8.00;3.35;;;;;;;18.27;62.00;93737.28;5090504;28;20071;-83
2021/08/13 00:44:30;;;;;;;8.77;3.55;;;;;;;18.48;62.50;93781.72;5090304;28;20043;-84
2021/08/13 00:46:57;;;;;;;5.05;3.17;;;;;;;18.48;62.14;93779.13;5090122;28;20062;-84
2021/08/13 00:49:23;;;;;;;8.30;3.22;;;;;;;18.46;62.21;93778.56;5090220;28;20051;-83
2021/08/13 00:51:52;;;;;;;8.98;3.63;;;;;;;18.39;62.25;93770.97;5089821;28;20043;-84
2021/08/13 00:54:21;;;;;;;6.30;3.65;;;;;;;18.43;62.54;93784.25;5089965;28;20044;-83
2021/08/13 00:56:49;;;;;;;5.68;3.13;;;;;;;18.38;62.45;93786.81;5089790;28;20047;-83
2021/08/13 00:59:16;;;;;;;5.72;3.22;;;;;;;18.31;62.80;93784.38;5089926;28;20048;-84
2021/08/13 01:01:43;;;;;;;6.75;3.40;;;;;;;18.23;63.08;93787.44;5090117;28;20048;-84
2021/08/13 01:04:09;;;;;;;6.72;3.60;;;;;;;18.22;63.05;93789.22;5090013;28;20051;-83
2021/08/13 01:06:36;;;;;;;7.75;3.28;;;;;;;18.21;63.26;93784.28;5089284;28;20056;-83
2021/08/13 01:09:05;;;;;;;8.32;3.67;;;;;;;18.15;63.59;93788.63;5089653;28;20429;-84
2021/08/13 01:11:44;;;;;;;7.20;3.47;;;;;;;18.08;63.63;93788.00;5089553;28;20055;-83
2021/08/13 01:14:18;;;;;;;10.35;3.83;;;;;;;17.88;64.11;93768.53;5089477;28;20129;-83
2021/08/13 01:16:48;;;;;;;6.18;4.00;;;;;;;18.03;64.10;93791.31;5089474;28;20139;-83
2021/08/13 01:19:23;;;;;;;7.38;3.92;;;;;;;17.92;64.45;93790.41;5089762;28;20531;-83
2021/08/13 01:21:54;;;;;;;6.60;4.07;;;;;;;17.99;64.42;93795.41;5089433;28;20569;-83
2021/08/13 01:24:25;;;;;;;7.03;3.67;;;;;;;18.01;64.38;93783.75;5089835;28;20288;-83
2021/08/13 01:26:58;;;;;;;6.63;3.63;;;;;;;17.82;64.18;93748.72;5089379;28;20459;-83
2021/08/13 01:29:34;;;;;;;8.55;4.00;;;;;;;18.06;63.83;93783.09;5089338;28;20058;-83
2021/08/13 01:32:22;;;;;;;6.50;3.67;;;;;;;17.89;63.67;93768.28;5089631;28;20097;-83
2021/08/13 01:34:53;;;;;;;6.45;3.42;;;;;;;18.02;63.63;93781.97;5089736;28;20435;-83
2021/08/13 01:37:22;;;;;;;6.22;3.22;;;;;;;17.81;63.91;93752.34;5089190;28;20562;-83
2021/08/13 01:39:51;;;;;;;8.57;3.78;;;;;;;17.81;64.08;93752.34;5089152;28;20055;-82
2021/08/13 01:42:18;;;;;;;7.88;3.33;;;;;;;17.80;64.91;93772.34;5089324;28;20048;-83
2021/08/13 01:44:46;;;;;;;7.35;4.15;;;;;;;17.79;65.00;93770.75;5089234;28;20048;-83
2021/08/13 01:47:13;;;;;;;6.90;3.92;;;;;;;17.59;65.70;93766.09;5089504;28;20044;-83
2021/08/13 01:49:41;;;;;;;7.20;3.90;;;;;;;17.65;65.72;93774.72;5088992;28;20044;-82
2021/08/13 01:52:09;;;;;;;12.00;3.88;;;;;;;17.58;66.00;93780.09;5089563;28;20052;-83
2021/08/13 01:54:37;;;;;;;10.23;4.22;;;;;;;17.52;66.17;93771.44;5089393;28;20044;-80
2021/08/13 01:57:04;;;;;;;8.45;4.57;;;;;;;17.47;66.51;93772.19;5089492;28;20041;-80
2021/08/13 01:59:34;;;;;;;9.93;3.88;;;;;;;17.45;66.16;93756.03;5089330;28;20052;-80
2021/08/13 02:02:01;;;;;;;16.08;4.97;;;;;;;17.54;66.02;93763.44;5089324;28;20117;-81
2021/08/13 02:04:28;;;;;;;8.82;4.50;;;;;;;17.48;66.50;93772.94;5089183;28;20044;-80
2021/08/13 02:06:57;;;;;;;11.80;4.95;;;;;;;17.51;65.97;93775.06;5085270;28;20424;-81
2021/08/13 02:09:25;;;;;;;6.95;4.00;;;;;;;17.53;65.83;93767.81;5087436;28;20044;-82
2021/08/13 02:11:53;;;;;;;7.53;3.97;;;;;;;17.60;65.96;93767.66;5088968;28;20121;-82
2021/08/13 02:14:20;;;;;;;6.72;3.53;;;;;;;17.45;65.75;93744.88;5089162;28;20489;-83
2021/08/13 02:16:53;;;;;;;7.82;4.30;;;;;;;17.59;65.81;93764.25;5089076;28;20052;-82
2021/08/13 02:19:27;;;;;;;7.15;3.92;;;;;;;17.63;65.37;93764.56;5091877;28;20055;-82
2021/08/13 02:22:12;;;;;;;9.90;4.20;;;;;;;17.62;66.12;93760.41;5092931;28;21016;-82
2021/08/13 02:24:41;;;;;;;9.68;4.28;;;;;;;17.51;66.49;93762.09;5092994;28;20048;-82
2021/08/13 02:27:08;;;;;;;7.88;3.90;;;;;;;17.47;66.62;93761.00;5093074;28;20495;-82
2021/08/13 02:29:35;;;;;;;7.60;4.18;;;;;;;17.43;66.92;93767.69;5092581;28;20051;-82
2021/08/13 02:32:01;;;;;;;6.88;4.07;;;;;;;17.43;66.75;93767.69;5092927;28;20063;-81
2021/08/13 02:34:28;;;;;;;9.32;4.50;;;;;;;17.48;66.37;93771.16;5092657;28;20052;-81
2021/08/13 02:37:02;;;;;;;9.13;3.83;;;;;;;17.29;67.01;93759.44;5092565;28;20531;-81
2021/08/13 02:39:32;;;;;;;7.75;3.90;;;;;;;17.32;67.21;93777.91;5094686;28;20549;-81
2021/08/13 02:42:03;;;;;;;7.95;4.30;;;;;;;17.32;67.20;93777.16;5112646;28;20050;-81
2021/08/13 02:44:35;;;;;;;10.50;4.18;;;;;;;17.06;67.53;93753.38;5112745;28;20044;-82
2021/08/13 02:47:07;;;;;;;7.82;3.90;;;;;;;17.18;67.57;93780.03;5112892;28;20047;-82
2021/08/13 02:49:36;;;;;;;7.50;3.50;;;;;;;17.22;67.31;93781.16;5112772;28;20048;-82
2021/08/13 02:52:08;;;;;;;10.45;4.10;;;;;;;17.14;67.45;93780.75;5112774;28;20093;-82
2021/08/13 02:54:36;;;;;;;9.77;4.60;;;;;;;16.87;67.80;93753.59;5112443;28;20531;-82
2021/08/13 02:57:06;;;;;;;6.65;3.33;;;;;;;16.93;67.25;93754.44;5112551;28;20043;-81
2021/08/13 02:59:35;;;;;;;8.23;4.10;;;;;;;17.12;67.64;93783.59;5112410;28;20054;-82
2021/08/13 03:02:04;;;;;;;15.45;4.05;;;;;;;17.11;67.19;93781.25;5112482;28;20047;-84
2021/08/13 03:04:32;;;;;;;9.80;3.67;;;;;;;17.09;67.73;93776.28;5112598;28;20051;-84
2021/08/13 03:07:01;;;;;;;7.20;3.78;;;;;;;16.98;67.46;93764.16;5110834;28;20048;-83
2021/08/13 03:09:28;;;;;;;7.32;3.38;;;;;;;17.14;67.03;93785.94;5112614;28;20048;-81
2021/08/13 03:11:56;;;;;;;8.48;3.88;;;;;;;17.08;67.61;93796.25;5112222;28;20455;-81
2021/08/13 03:14:25;;;;;;;12.27;4.30;;;;;;;17.11;67.27;93789.81;5112520;28;20070;-81
2021/08/13 03:16:53;;;;;;;10.60;4.05;;;;;;;16.99;68.02;93795.03;5112518;28;20055;-81
2021/08/13 03:19:20;;;;;;;12.63;4.32;;;;;;;17.03;68.23;93790.22;5112220;28;20039;-82
2021/08/13 03:21:47;;;;;;;9.82;4.78;;;;;;;16.90;68.49;93792.03;5112438;28;20066;-82
2021/08/13 03:24:15;;;;;;;8.23;4.25;;;;;;;16.94;68.17;93798.34;5112302;28;20051;-82
2021/08/13 03:26:42;;;;;;;13.23;4.35;;;;;;;16.88;68.50;93781.13;5112242;28;20050;-83
2021/08/13 03:29:09;;;;;;;9.20;4.03;;;;;;;16.87;68.32;93797.72;5111865;28;20534;-83
2021/08/13 03:31:39;;;;;;;14.68;3.60;;;;;;;16.92;67.84;93802.19;5111706;28;20047;-83
2021/08/13 03:34:08;;;;;;;6.88;3.55;;;;;;;16.89;67.76;93797.47;5112069;28;20047;-83
2021/08/13 03:36:36;;;;;;;15.48;3.72;;;;;;;16.89;67.48;93798.25;5111947;28;20048;-83
2021/08/13 03:39:03;;;;;;;8.35;3.20;;;;;;;16.88;67.44;93793.28;5111750;28;20044;-82
2021/08/13 03:41:29;;;;;;;8.30;3.78;;;;;;;16.76;67.34;93780.41;5111879;28;20055;-82
2021/08/13 03:43:56;;;;;;;10.75;3.67;;;;;;;16.74;67.53;93792.81;5111472;28;20354;-81
2021/08/13 03:46:23;;;;;;;8.48;3.72;;;;;;;16.67;68.10;93804.09;5111624;28;20039;-80
2021/08/13 03:48:51;;;;;;;19.70;3.58;;;;;;;16.41;68.29;93766.56;5111495;28;20043;-80
2021/08/13 03:51:18;;;;;;;11.38;3.97;;;;;;;16.58;68.60;93789.97;5111385;28;20488;-80
2021/08/13 03:53:45;;;;;;;12.13;3.67;;;;;;;16.52;69.09;93796.84;5111355;28;20052;-80
2021/08/13 03:56:12;;;;;;;11.65;4.68;;;;;;;16.51;69.13;93797.06;5111692;28;20044;-80
2021/08/13 03:58:41;;;;;;;11.85;4.13;;;;;;;16.57;68.86;93796.16;5111212;28;20054;-80
2021/08/13 04:01:08;;;;;;;9.13;4.10;;;;;;;16.53;69.02;93798.41;5111467;28;20040;-80
2021/08/13 04:03:35;;;;;;;12.80;3.63;;;;;;;16.60;68.70;93798.28;5111609;28;20438;-81
2021/08/13 04:06:03;;;;;;;8.45;3.00;;;;;;;16.55;68.55;93791.22;5111523;28;20047;-81
2021/08/13 04:08:30;;;;;;;8.38;3.58;;;;;;;16.58;68.60;93791.75;5111055;28;20044;-81
2021/08/13 04:10:57;;;;;;;15.07;3.70;;;;;;;16.56;68.25;93785.00;5110834;28;20055;-81
2021/08/13 04:13:24;;;;;;;14.50;3.67;;;;;;;16.62;67.84;93782.50;5111215;28;20059;-81
2021/08/13 04:15:51;;;;;;;11.88;3.85;;;;;;;16.61;67.99;93791.31;5110945;28;20050;-81
2021/08/13 04:18:17;;;;;;;13.13;4.25;;;;;;;16.55;67.97;93777.44;5110772;28;20052;-80
2021/08/13 04:20:44;;;;;;;6.28;3.20;;;;;;;16.63;68.30;93786.66;5111042;28;20750;-81
2021/08/13 04:23:12;;;;;;;5.72;3.22;;;;;;;16.68;67.82;93802.31;5103038;28;20040;-80
2021/08/13 04:25:39;;;;;;;10.68;3.25;;;;;;;16.70;67.65;93802.84;5088374;28;20489;-80
2021/08/13 04:28:06;;;;;;;9.00;3.17;;;;;;;16.60;67.83;93795.69;5089393;28;20048;-80
2021/08/13 04:30:33;;;;;;;11.82;3.50;;;;;;;16.56;67.95;93789.38;5090518;28;20048;-80
2021/08/13 04:33:00;;;;;;;7.20;3.30;;;;;;;16.65;68.24;93805.38;5089976;28;20048;-81
2021/08/13 04:35:27;;;;;;;12.13;3.55;;;;;;;16.63;68.51;93813.41;5090719;28;21360;-81
2021/08/13 04:37:53;;;;;;;12.98;3.95;;;;;;;16.67;68.60;93811.13;5090417;28;20048;-81
2021/08/13 04:40:22;;;;;;;12.93;4.78;;;;;;;16.65;68.76;93805.38;5089816;28;20059;-82
2021/08/13 04:42:49;;;;;;;13.30;4.13;;;;;;;16.63;69.19;93800.44;5089915;28;20044;-81
2021/08/13 04:45:15;;;;;;;16.10;4.43;;;;;;;16.67;68.77;93796.31;5090292;28;20051;-82
2021/08/13 04:48:01;;;;;;;13.48;3.60;;;;;;;16.51;68.58;93763.38;5089935;28;20044;-81
2021/08/13 04:50:27;;;;;;;18.05;4.38;;;;;;;16.89;67.90;93792.28;5090249;28;20051;-82
2021/08/13 04:52:54;;;;;;;14.18;4.82;;;;;;;16.89;68.33;93784.50;5090032;28;20047;-82
2021/08/13 04:55:24;;;;;;;12.45;4.35;;;;;;;17.11;67.71;93799.41;5089910;28;20043;-82
2021/08/13 04:57:52;;;;;;;15.27;5.00;;;;;;;17.26;67.36;93799.63;5090094;28;20052;-81
2021/08/13 05:00:19;;;;;;;16.50;4.35;;;;;;;17.31;67.24;93809.31;5089663;28;20466;-81
2021/08/13 05:02:47;;;;;;;16.05;4.78;;;;;;;17.32;67.09;93805.69;4387373;28;20002137;-80
2021/08/13 05:05:14;;;;;;;11.15;5.55;;;;;;;17.45;66.94;93809.78;5089638;28;20497;-81
2021/08/13 05:07:41;;;;;;;16.45;4.82;;;;;;;17.53;66.76;93804.19;5090074;28;20417;-81
2021/08/13 05:10:10;;;;;;;13.35;4.78;;;;;;;17.63;66.47;93804.34;5089960;28;20048;-81
2021/08/13 05:12:39;;;;;;;13.20;4.13;;;;;;;17.72;65.96;93815.09;5089664;28;20043;-81
2021/08/13 05:15:08;;;;;;;11.30;4.85;;;;;;;17.81;65.65;93805.09;5089346;28;20052;-80
2021/08/13 05:17:35;;;;;;;14.50;4.57;;;;;;;17.88;65.84;93804.91;5089663;28;20040;-83
2021/08/13 05:20:03;;;;;;;15.02;4.28;;;;;;;17.98;66.01;93815.44;5089704;28;20047;-82
2021/08/13 05:22:32;;;;;;;12.95;4.10;;;;;;;18.06;65.68;93819.47;5089506;28;20052;-80
2021/08/13 05:25:00;;;;;;;14.32;4.65;;;;;;;18.08;65.18;93809.63;5089437;28;20079;-80
2021/08/13 05:27:27;;;;;;;9.95;4.00;;;;;;;18.16;64.66;93803.97;5089498;28;20492;-80
2021/08/13 05:29:55;;;;;;;8.02;4.45;;;;;;;18.34;64.30;93819.53;5089724;28;20055;-80
2021/08/13 05:32:24;;;;;;;16.67;4.88;;;;;;;18.48;64.57;93814.72;5089567;28;20413;-80
2021/08/13 05:34:51;;;;;;;13.73;4.60;;;;;;;18.57;64.36;93810.69;5089600;28;20051;-81
2021/08/13 05:37:17;;;;;;;8.35;4.47;;;;;;;18.75;64.00;93814.75;5089466;28;20405;-79
2021/08/13 05:39:44;;;;;;;13.10;5.93;;;;;;;18.89;63.27;93812.53;5089720;28;20564;-78
2021/08/13 05:42:11;;;;;;;9.95;4.32;;;;;;;19.00;62.53;93803.00;5089590;28;20040;-79
2021/08/13 05:44:39;;;;;;;16.25;5.68;;;;;;;19.18;60.39;93812.31;5089181;28;20435;-78
2021/08/13 05:47:07;;;;;;;18.23;6.32;;;;;;;19.29;60.76;93812.34;5089141;28;20048;-78
2021/08/13 05:49:34;;;;;;;13.77;5.30;;;;;;;19.40;60.51;93808.81;5089369;28;20098;-83
2021/08/13 05:52:01;;;;;;;13.60;5.75;;;;;;;19.63;59.19;93819.91;5089255;28;20658;-83
2021/08/13 05:54:30;;;;;;;15.90;6.63;;;;;;;19.86;59.02;93817.94;5092241;28;20056;-82
2021/08/13 05:56:57;;;;;;;20.30;8.60;;;;;;;20.09;58.50;93823.81;5093065;28;20085;-81
2021/08/13 05:59:24;;;;;;;21.73;9.68;;;;;;;20.34;57.68;93823.16;5089877;28;20052;-82
2021/08/13 06:01:51;;;;;;;23.33;10.43;;;;;;;20.64;56.54;93823.50;5091157;28;20048;-81
2021/08/13 06:04:19;;;;;;;27.20;11.93;;;;;;;20.87;54.56;93819.66;5092821;28;20589;-81
2021/08/13 06:06:46;;;;;;;26.23;12.48;;;;;;;20.79;54.77;93820.13;5092914;28;20090;-81
2021/08/13 06:09:13;;;;;;;24.33;9.95;;;;;;;20.95;54.65;93819.16;5092898;28;20509;-81
2021/08/13 06:11:40;;;;;;;30.00;10.15;;;;;;;21.31;53.16;93818.38;5092832;28;20489;-82
2021/08/13 06:14:07;;;;;;;19.77;9.23;;;;;;;21.45;52.25;93786.47;5092884;28;20047;-82
2021/08/13 06:16:33;;;;;;;15.57;8.20;;;;;;;21.75;50.73;93814.44;5093328;28;20063;-81
2021/08/13 06:19:00;;;;;;;17.77;7.47;;;;;;;21.99;50.34;93819.06;5092887;28;20051;-82
2021/08/13 06:21:29;;;;;;;22.23;8.63;;;;;;;22.38;49.90;93809.78;5093043;28;20044;-82
2021/08/13 06:23:56;;;;;;;10.38;4.45;;;;;;;22.79;46.90;93821.91;5092944;28;20482;-81
2021/08/13 06:26:23;;;;;;;12.63;6.15;;;;;;;23.20;46.23;93817.44;5092697;28;20488;-81
2021/08/13 06:28:50;;;;;;;10.75;4.68;;;;;;;23.59;45.54;93816.59;5092808;28;20052;-81
2021/08/13 06:31:17;;;;;;;12.70;4.35;;;;;;;23.94;43.59;93819.16;5092499;28;20052;-81
2021/08/13 06:33:43;;;;;;;7.40;4.30;;;;;;;24.17;43.11;93816.84;5092535;28;20048;-81
2021/08/13 06:36:11;;;;;;;7.00;3.55;;;;;;;23.89;42.91;93819.22;5092891;28;20040;-81
2021/08/13 06:38:39;;;;;;;11.32;4.20;;;;;;;24.36;42.13;93814.25;5092510;28;20139;-82
2021/08/13 06:41:06;;;;;;;6.10;3.53;;;;;;;24.82;41.19;93809.50;5092687;28;20534;-82
2021/08/13 06:43:33;;;;;;;7.93;3.05;;;;;;;24.96;40.59;93814.81;5092386;28;20051;-82
2021/08/13 06:46:00;;;;;;;12.48;3.78;;;;;;;25.20;40.63;93819.19;5092379;28;20044;-83
2021/08/13 06:48:26;;;;;;;10.15;3.10;;;;;;;25.25;40.45;93818.31;5092546;28;20048;-83
2021/08/13 06:50:53;;;;;;;7.32;3.00;;;;;;;25.64;39.79;93813.78;5092099;28;20504;-83
2021/08/13 06:53:20;;;;;;;9.88;2.90;;;;;;;25.60;39.32;93811.69;5092433;28;20051;-82
2021/08/13 06:55:48;;;;;;;11.30;3.70;;;;;;;25.98;38.58;93821.31;5092267;28;20122;-82
2021/08/13 06:58:15;;;;;;;12.25;4.13;;;;;;;26.18;38.56;93821.19;5092294;28;20424;-82
2021/08/13 07:00:42;;;;;;;7.40;3.60;;;;;;;26.21;38.21;93825.88;5091861;28;20059;-82
2021/08/13 07:03:09;;;;;;;13.38;3.63;;;;;;;26.36;38.38;93806.41;5092210;28;20493;-85
2021/08/13 07:05:36;;;;;;;8.15;3.60;;;;;;;26.52;37.09;93815.53;5091689;28;20052;-83
2021/08/13 07:08:07;;;;;;;11.40;3.75;;;;;;;26.68;36.79;93817.84;5091578;28;20052;-83
2021/08/13 07:10:34;;;;;;;9.00;3.55;;;;;;;26.78;36.44;93803.66;5091721;28;20044;-83
2021/08/13 07:13:02;;;;;;;6.18;3.05;;;;;;;27.02;36.49;93823.75;5091851;28;20051;-83
2021/08/13 07:15:50;;;;;;;12.23;3.10;;;;;;;27.39;36.57;93813.91;5091460;28;20507;-84
2021/08/13 07:18:16;;;;;;;6.93;2.95;;;;;;;27.60;36.06;93813.44;5092467;28;20052;-83
2021/08/13 07:20:43;;;;;;;6.22;2.92;;;;;;;27.76;35.64;93805.13;5092094;28;20055;-85
2021/08/13 07:23:10;;;;;;;11.60;3.67;;;;;;;27.62;35.62;93816.53;5088777;28;20389;-85
2021/08/13 07:25:37;;;;;;;7.13;2.90;;;;;;;27.51;35.08;93812.56;5089245;28;20405;-85
2021/08/13 07:28:06;;;;;;;5.20;3.17;;;;;;;27.00;35.69;93800.31;5089796;28;20052;-84
2021/08/13 07:30:33;;;;;;;7.82;3.15;;;;;;;27.38;36.19;93814.19;5090711;28;20040;-84
2021/08/13 07:32:59;;;;;;;6.90;2.72;;;;;;;27.67;35.12;93782.09;5091513;28;20048;-85
2021/08/13 07:35:26;;;;;;;6.28;3.00;;;;;;;27.42;34.97;93780.88;5091315;28;20052;-87
2021/08/13 07:37:53;;;;;;;10.30;3.28;;;;;;;27.41;35.17;93810.97;5091957;28;20044;-84
2021/08/13 07:40:20;;;;;;;8.15;3.08;;;;;;;27.93;35.39;93794.63;5100804;28;20051;-86
2021/08/13 07:42:47;;;;;;;10.50;3.05;;;;;;;28.23;34.32;93810.00;5092588;28;20044;-86
2021/08/13 07:45:17;;;;;;;5.63;2.75;;;;;;;26.95;35.73;93801.19;5091474;28;20117;-85
2021/08/13 07:47:43;;;;;;;6.93;2.75;;;;;;;26.30;37.07;93805.72;5091438;28;20048;-86
2021/08/13 07:50:10;;;;;;;11.55;2.67;;;;;;;25.98;37.69;93770.53;5091383;28;20052;-86
2021/08/13 07:52:37;;;;;;;4.75;2.60;;;;;;;26.89;37.05;93807.63;5090916;28;20051;-86
2021/08/13 07:55:05;;;;;;;5.72;2.63;;;;;;;27.27;35.75;93785.47;5091134;28;20058;-85
2021/08/13 07:57:32;;;;;;;8.18;2.75;;;;;;;27.70;35.76;93805.25;5090936;28;20044;-86
2021/08/13 07:59:59;;;;;;;8.23;2.85;;;;;;;28.12;33.51;93802.31;5091031;28;20110;-86
2021/08/13 08:02:27;;;;;;;6.72;2.70;;;;;;;28.60;33.98;93807.88;5091289;28;20048;-86
2021/08/13 08:04:54;;;;;;;6.40;3.13;;;;;;;28.68;33.31;93814.25;5091088;28;20051;-87
2021/08/13 08:07:20;;;;;;;6.15;3.03;;;;;;;28.94;32.91;93806.34;5091025;28;20046;-86
2021/08/13 08:09:47;;;;;;;6.70;3.08;;;;;;;29.47;32.73;93811.59;5090649;28;20052;-87
2021/08/13 08:12:14;;;;;;;8.63;2.80;;;;;;;29.56;32.01;93773.75;5089015;28;20511;-87
2021/08/13 08:14:41;;;;;;;6.78;2.97;;;;;;;29.20;31.68;93765.88;5090228;28;20415;-87
2021/08/13 08:17:08;;;;;;;8.60;3.78;;;;;;;29.39;31.93;93814.25;5091263;28;20504;-86
2021/08/13 08:19:36;;;;;;;5.28;2.60;;;;;;;29.01;31.70;93821.00;5111043;28;20051;-87
2021/08/13 08:22:04;;;;;;;10.13;3.40;;;;;;;29.05;32.78;93813.97;5111007;28;20047;-86
2021/08/13 08:24:30;;;;;;;5.07;2.78;;;;;;;29.06;31.35;93812.88;5111110;28;20043;-86
2021/08/13 08:26:57;;;;;;;6.20;2.80;;;;;;;29.31;31.16;93770.84;5111630;28;20052;-87
2021/08/13 08:29:24;;;;;;;7.15;3.17;;;;;;;30.02;31.61;93797.13;5101614;28;20052;-87
2021/08/13 08:31:51;;;;;;;5.82;2.85;;;;;;;29.85;31.78;93804.03;5089069;28;20489;-87
2021/08/13 08:34:18;;;;;;;4.60;2.92;;;;;;;29.83;29.50;93803.56;5088979;28;20044;-86
2021/08/13 08:36:46;;;;;;;7.20;3.03;;;;;;;29.14;31.69;93795.44;5090536;28;20063;-86
2021/08/13 08:39:13;;;;;;;5.20;2.65;;;;;;;27.87;32.13;93793.97;5089651;28;20044;-86
2021/08/13 08:41:39;;;;;;;7.50;2.75;;;;;;;28.37;32.55;93786.84;5090227;28;20455;-86
2021/08/13 08:44:06;;;;;;;6.95;2.83;;;;;;;28.94;31.49;93806.34;5090547;28;20055;-85
2021/08/13 08:46:33;;;;;;;5.82;2.75;;;;;;;28.49;31.59;93783.63;5089520;28;20051;-85
2021/08/13 08:49:02;;;;;;;7.07;2.88;;;;;;;29.02;31.24;93791.56;5090074;28;20052;-86
2021/08/13 08:51:29;;;;;;;5.47;2.67;;;;;;;28.72;31.58;93798.53;5089768;28;20051;-87
2021/08/13 08:53:59;;;;;;;7.65;3.13;;;;;;;29.04;31.84;93799.19;5089492;28;20110;-85
2021/08/13 08:56:27;;;;;;;6.50;2.90;;;;;;;29.23;30.53;93808.66;5089545;28;20051;-86
2021/08/13 08:58:54;;;;;;;5.22;2.90;;;;;;;29.25;30.17;93759.66;5089636;28;20497;-87
2021/08/13 09:01:21;;;;;;;4.72;2.72;;;;;;;28.97;31.51;93801.53;5089910;28;20056;-87
2021/08/13 09:03:49;;;;;;;4.60;2.90;;;;;;;28.54;32.05;93798.53;5089400;28;20558;-85
2021/08/13 09:06:16;;;;;;;5.85;2.75;;;;;;;27.76;32.77;93761.03;5090385;28;20044;-85
2021/08/13 09:08:43;;;;;;;5.57;2.78;;;;;;;27.92;33.22;93805.50;5090174;28;20048;-85
2021/08/13 09:11:12;;;;;;;11.15;3.35;;;;;;;28.78;32.47;93776.94;5089545;28;20048;-86
2021/08/13 09:13:39;;;;;;;5.97;3.35;;;;;;;29.47;31.00;93789.63;5089637;28;20071;-85
2021/08/13 09:16:13;;;;;;;4.88;2.90;;;;;;;28.03;32.29;93800.75;5089196;28;20043;-85
2021/08/13 09:18:42;;;;;;;5.38;2.85;;;;;;;28.50;32.04;93771.97;5089283;28;20423;-85
2021/08/13 09:21:10;;;;;;;7.15;3.53;;;;;;;28.58;32.19;93775.69;5089414;28;20087;-86
2021/08/13 09:23:39;;;;;;;4.93;2.97;;;;;;;28.70;31.93;93796.25;5089203;28;20047;-86
2021/08/13 09:26:09;;;;;;;5.03;3.30;;;;;;;29.06;30.88;93787.22;5089256;28;20062;-85
2021/08/13 09:28:44;;;;;;;5.53;3.03;;;;;;;29.16;31.32;93786.13;5089097;28;20485;-85
2021/08/13 09:31:16;;;;;;;7.95;3.55;;;;;;;28.94;31.33;93779.91;5089607;28;20089;-86
2021/08/13 09:33:45;;;;;;;6.45;3.92;;;;;;;28.82;32.05;93803.53;5089629;28;20062;-85
2021/08/13 09:36:13;;;;;;;5.22;3.28;;;;;;;29.01;31.30;93795.31;5089119;28;20051;-85
2021/08/13 09:38:40;;;;;;;5.93;3.83;;;;;;;29.54;31.04;93797.13;5088948;28;20098;-87
2021/08/13 09:41:09;;;;;;;6.25;3.45;;;;;;;29.31;30.75;93784.06;5089359;28;20534;-85
2021/08/13 09:43:52;;;;;;;5.82;3.50;;;;;;;29.03;31.38;93789.72;5089358;28;20057;-87
2021/08/13 09:46:20;;;;;;;8.63;3.10;;;;;;;28.99;30.75;93789.56;5089196;28;20076;-85
2021/08/13 09:48:46;;;;;;;4.90;3.60;;;;;;;28.64;30.84;93728.72;5089504;28;20043;-85
2021/08/13 09:51:30;;;;;;;7.20;3.38;;;;;;;29.26;31.32;93798.25;5089217;28;20051;-87
2021/08/13 09:53:58;;;;;;;6.95;3.55;;;;;;;28.53;31.82;93789.06;5066955;28;20061;-87
2021/08/13 09:56:26;;;;;;;5.47;2.90;;;;;;;28.47;32.10;93769.91;5067820;28;20059;-86
2021/08/13 09:59:06;;;;;;;6.53;3.22;;;;;;;28.35;32.74;93793.53;5068700;28;20075;-87
2021/08/13 10:01:37;;;;;;;5.32;3.05;;;;;;;28.24;31.75;93799.09;5068653;28;20051;-87
2021/08/13 10:04:04;;;;;;;6.75;3.25;;;;;;;28.83;31.65;93799.78;5068789;28;20130;-85
2021/08/13 10:06:32;;;;;;;5.38;3.28;;;;;;;28.91;31.52;93798.28;5068887;28;20048;-86
2021/08/13 10:08:58;;;;;;;9.27;3.63;;;;;;;28.07;32.31;93739.09;5068959;28;20040;-87
2021/08/13 10:11:25;;;;;;;5.28;3.10;;;;;;;28.50;31.96;93787.03;5068931;28;20048;-89
2021/08/13 10:13:54;;;;;;;7.80;3.70;;;;;;;29.11;31.05;93804.78;5069286;28;20055;-85
2021/08/13 10:16:25;;;;;;;9.90;3.65;;;;;;;29.65;30.42;93793.03;5067981;28;20056;-86
2021/08/13 10:18:55;;;;;;;4.78;3.22;;;;;;;29.32;30.40;93806.78;5087353;28;20046;-86
2021/08/13 10:21:22;;;;;;;6.18;2.80;;;;;;;28.81;31.02;93764.97;5088684;28;20514;-87
2021/08/13 10:23:50;;;;;;;8.32;3.88;;;;;;;29.67;30.47;93771.56;5088614;28;20048;-89
2021/08/13 10:26:19;;;;;;;6.97;3.80;;;;;;;29.64;30.13;93796.78;5088826;28;20052;-87
2021/08/13 10:28:47;;;;;;;4.90;3.13;;;;;;;28.58;31.26;93746.63;5089154;28;20048;-85
2021/08/13 10:31:18;;;;;;;5.03;3.40;;;;;;;29.40;30.30;93792.00;5089009;28;20044;-85
2021/08/13 10:33:46;;;;;;;4.15;2.80;;;;;;;29.46;30.33;93796.81;5088923;28;20067;-87
2021/08/13 10:36:17;;;;;;;5.53;3.53;;;;;;;29.66;29.80;93768.13;5088589;28;20135;-88
2021/08/13 10:38:48;;;;;;;5.53;3.13;;;;;;;29.29;30.49;93791.56;5088847;28;20051;-88
2021/08/13 10:41:16;;;;;;;5.38;3.00;;;;;;;29.01;31.03;93795.31;5092943;28;20056;-87
2021/08/13 10:43:48;;;;;;;4.93;3.47;;;;;;;29.22;30.46;93805.25;5092922;28;20473;-89
2021/08/13 10:46:20;;;;;;;5.63;3.03;;;;;;;28.92;31.12;93797.97;5093161;28;20079;-88
2021/08/13 10:48:51;;;;;;;8.05;3.47;;;;;;;29.41;30.34;93783.75;5092851;28;20051;-87
2021/08/13 10:51:29;;;;;;;9.02;3.25;;;;;;;29.34;30.17;93794.81;5092517;28;20044;-90
2021/08/13 10:54:09;;;;;;;6.35;3.20;;;;;;;29.42;30.42;93792.44;5092816;28;20489;-89
2021/08/13 10:56:41;;;;;;;5.63;3.75;;;;;;;28.77;31.23;93756.09;5093077;28;20083;-88
2021/08/13 10:59:08;;;;;;;8.98;3.45;;;;;;;29.01;30.84;93736.38;5092119;28;20493;-87
2021/08/13 11:01:37;;;;;;;7.63;3.53;;;;;;;29.18;31.09;93768.09;5092573;28;20447;-88
2021/08/13 11:04:12;;;;;;;6.85;3.78;;;;;;;28.57;31.88;93762.78;5092282;28;20330;-85
2021/08/13 11:06:43;;;;;;;5.47;3.67;;;;;;;29.29;30.59;93771.16;5092332;28;20538;-87
2021/08/13 11:09:18;;;;;;;7.38;3.65;;;;;;;29.34;31.00;93771.00;5089658;28;20505;-89
2021/08/13 11:12:04;;;;;;;6.18;3.25;;;;;;;28.66;30.94;93747.72;5090062;28;20554;-86
2021/08/13 11:14:33;;;;;;;6.43;4.10;;;;;;;29.04;31.33;93741.03;5102161;28;20051;-86
2021/08/13 11:17:03;;;;;;;6.13;3.65;;;;;;;29.21;31.01;93772.72;5097553;28;20079;-84
2021/08/13 11:19:59;;;;;;;7.55;3.70;;;;;;;29.56;30.39;93766.59;5091658;28;20044;-90
2021/08/13 11:22:31;;;;;;;7.35;3.60;;;;;;;29.74;29.84;93766.53;5091565;28;20052;-87
2021/08/13 11:24:58;;;;;;;7.03;3.85;;;;;;;29.09;29.29;93738.22;5091586;28;20067;-84
2021/08/13 11:27:25;;;;;;;5.85;3.90;;;;;;;29.46;28.73;93767.72;5091891;28;20044;-88
2021/08/13 11:29:52;;;;;;;7.55;3.67;;;;;;;29.82;28.55;93752.50;5091546;28;20040;-84
2021/08/13 11:32:29;;;;;;;6.90;3.50;;;;;;;29.24;28.61;93746.75;5091603;28;20048;-82
2021/08/13 11:34:58;;;;;;;5.90;3.67;;;;;;;29.32;29.55;93759.16;5091300;28;20051;-82
2021/08/13 11:37:51;;;;;;;5.40;3.15;;;;;;;29.64;29.45;93753.66;5091223;28;20537;-84